sensor_id;sensor_type;location;lat;lon;timestamp;P1;durP1;ratioP1;P2;durP2;ratioP2
69381;SDS011;56560;50.692;12.844;2024-03-22T00:01:55;12.80;;;4.50;;
69381;SDS011;56560;50.692;12.844;2024-03-22T00:04:21;13.57;;;4.40;;
69381;SDS011;56560;50.692;12.844;2024-03-22T00:06:48;12.30;;;4.00;;
69381;SDS011;56560;50.692;12.844;2024-03-22T00:09:14;13.77;;;4.15;;
69381;SDS011;56560;50.692;12.844;2024-03-22T00:11:41;12.43;;;4.00;;
69381;SDS011;56560;50.692;12.844;2024-03-22T00:14:08;10.75;;;4.13;;
69381;SDS011;56560;50.692;12.844;2024-03-22T00:16:34;21.27;;;4.80;;
69381;SDS011;56560;50.692;12.844;2024-03-22T00:19:00;11.90;;;4.60;;
69381;SDS011;56560;50.692;12.844;2024-03-22T00:21:26;12.10;;;3.88;;
69381;SDS011;56560;50.692;12.844;2024-03-22T00:23:52;12.10;;;4.37;;
69381;SDS011;56560;50.692;12.844;2024-03-22T00:26:17;14.73;;;3.93;;
69381;SDS011;56560;50.692;12.844;2024-03-22T00:28:43;11.15;;;3.80;;
69381;SDS011;56560;50.692;12.844;2024-03-22T00:31:08;11.83;;;3.93;;
69381;SDS011;56560;50.692;12.844;2024-03-22T00:33:34;13.13;;;4.03;;
69381;SDS011;56560;50.692;12.844;2024-03-22T00:36:00;12.33;;;3.90;;
69381;SDS011;56560;50.692;12.844;2024-03-22T00:38:26;11.13;;;3.70;;
69381;SDS011;56560;50.692;12.844;2024-03-22T00:40:52;11.30;;;4.00;;
69381;SDS011;56560;50.692;12.844;2024-03-22T00:43:17;11.43;;;3.63;;
69381;SDS011;56560;50.692;12.844;2024-03-22T00:45:43;11.47;;;4.00;;
69381;SDS011;56560;50.692;12.844;2024-03-22T00:48:08;12.50;;;3.63;;
69381;SDS011;56560;50.692;12.844;2024-03-22T00:50:34;12.35;;;3.70;;
69381;SDS011;56560;50.692;12.844;2024-03-22T00:53:00;12.13;;;3.83;;
69381;SDS011;56560;50.692;12.844;2024-03-22T00:55:28;11.95;;;3.65;;
69381;SDS011;56560;50.692;12.844;2024-03-22T00:57:53;11.65;;;3.40;;
69381;SDS011;56560;50.692;12.844;2024-03-22T01:00:19;17.03;;;4.00;;
69381;SDS011;56560;50.692;12.844;2024-03-22T01:02:45;13.80;;;3.70;;
69381;SDS011;56560;50.692;12.844;2024-03-22T01:05:10;11.50;;;3.70;;
69381;SDS011;56560;50.692;12.844;2024-03-22T01:07:36;10.53;;;3.57;;
69381;SDS011;56560;50.692;12.844;2024-03-22T01:10:02;11.70;;;3.70;;
69381;SDS011;56560;50.692;12.844;2024-03-22T01:12:29;11.23;;;3.92;;
69381;SDS011;56560;50.692;12.844;2024-03-22T01:14:54;11.57;;;4.00;;
69381;SDS011;56560;50.692;12.844;2024-03-22T01:17:20;11.68;;;3.85;;
69381;SDS011;56560;50.692;12.844;2024-03-22T01:19:45;10.63;;;3.63;;
69381;SDS011;56560;50.692;12.844;2024-03-22T01:22:11;13.03;;;3.73;;
69381;SDS011;56560;50.692;12.844;2024-03-22T01:24:39;10.53;;;3.40;;
69381;SDS011;56560;50.692;12.844;2024-03-22T01:27:04;11.75;;;3.70;;
69381;SDS011;56560;50.692;12.844;2024-03-22T01:29:30;10.82;;;3.42;;
69381;SDS011;56560;50.692;12.844;2024-03-22T01:31:57;11.83;;;3.43;;
69381;SDS011;56560;50.692;12.844;2024-03-22T01:34:23;11.70;;;3.80;;
69381;SDS011;56560;50.692;12.844;2024-03-22T01:36:49;12.23;;;3.75;;
69381;SDS011;56560;50.692;12.844;2024-03-22T01:39:16;11.67;;;3.70;;
69381;SDS011;56560;50.692;12.844;2024-03-22T01:41:43;13.05;;;3.72;;
69381;SDS011;56560;50.692;12.844;2024-03-22T01:44:08;13.23;;;3.42;;
69381;SDS011;56560;50.692;12.844;2024-03-22T01:46:34;10.07;;;3.70;;
69381;SDS011;56560;50.692;12.844;2024-03-22T01:49:00;12.23;;;3.90;;
69381;SDS011;56560;50.692;12.844;2024-03-22T01:51:26;11.90;;;3.63;;
69381;SDS011;56560;50.692;12.844;2024-03-22T01:53:52;12.17;;;3.83;;
69381;SDS011;56560;50.692;12.844;2024-03-22T01:56:18;11.57;;;3.85;;
69381;SDS011;56560;50.692;12.844;2024-03-22T01:58:44;10.77;;;3.80;;
69381;SDS011;56560;50.692;12.844;2024-03-22T02:01:10;12.87;;;3.80;;
69381;SDS011;56560;50.692;12.844;2024-03-22T02:03:36;12.05;;;3.80;;
69381;SDS011;56560;50.692;12.844;2024-03-22T02:06:01;12.17;;;4.00;;
69381;SDS011;56560;50.692;12.844;2024-03-22T02:08:27;12.15;;;3.92;;
69381;SDS011;56560;50.692;12.844;2024-03-22T02:10:53;13.87;;;3.80;;
69381;SDS011;56560;50.692;12.844;2024-03-22T02:13:19;14.50;;;4.20;;
69381;SDS011;56560;50.692;12.844;2024-03-22T02:15:44;10.97;;;3.87;;
69381;SDS011;56560;50.692;12.844;2024-03-22T02:18:10;13.20;;;4.03;;
69381;SDS011;56560;50.692;12.844;2024-03-22T02:20:35;14.43;;;4.20;;
69381;SDS011;56560;50.692;12.844;2024-03-22T02:23:01;11.10;;;3.60;;
69381;SDS011;56560;50.692;12.844;2024-03-22T02:25:26;13.60;;;4.10;;
69381;SDS011;56560;50.692;12.844;2024-03-22T02:27:52;12.73;;;4.50;;
69381;SDS011;56560;50.692;12.844;2024-03-22T02:30:18;12.87;;;4.30;;
69381;SDS011;56560;50.692;12.844;2024-03-22T02:32:43;11.33;;;3.97;;
69381;SDS011;56560;50.692;12.844;2024-03-22T02:35:09;12.93;;;4.03;;
69381;SDS011;56560;50.692;12.844;2024-03-22T02:37:34;12.20;;;4.03;;
69381;SDS011;56560;50.692;12.844;2024-03-22T02:40:00;12.45;;;4.05;;
69381;SDS011;56560;50.692;12.844;2024-03-22T02:42:26;11.57;;;3.80;;
69381;SDS011;56560;50.692;12.844;2024-03-22T02:44:52;12.87;;;4.30;;
69381;SDS011;56560;50.692;12.844;2024-03-22T02:47:17;12.43;;;4.07;;
69381;SDS011;56560;50.692;12.844;2024-03-22T02:49:43;14.45;;;4.22;;
69381;SDS011;56560;50.692;12.844;2024-03-22T02:52:08;13.00;;;4.50;;
69381;SDS011;56560;50.692;12.844;2024-03-22T02:54:34;13.03;;;4.77;;
69381;SDS011;56560;50.692;12.844;2024-03-22T02:56:59;11.60;;;4.07;;
69381;SDS011;56560;50.692;12.844;2024-03-22T02:59:26;13.13;;;4.20;;
69381;SDS011;56560;50.692;12.844;2024-03-22T03:01:52;13.23;;;4.28;;
69381;SDS011;56560;50.692;12.844;2024-03-22T03:04:18;12.57;;;4.20;;
69381;SDS011;56560;50.692;12.844;2024-03-22T03:06:43;13.50;;;4.50;;
69381;SDS011;56560;50.692;12.844;2024-03-22T03:09:10;11.70;;;4.37;;
69381;SDS011;56560;50.692;12.844;2024-03-22T03:11:37;12.82;;;4.20;;
69381;SDS011;56560;50.692;12.844;2024-03-22T03:14:04;12.20;;;4.50;;
69381;SDS011;56560;50.692;12.844;2024-03-22T03:16:29;13.07;;;4.50;;
69381;SDS011;56560;50.692;12.844;2024-03-22T03:18:55;12.73;;;4.25;;
69381;SDS011;56560;50.692;12.844;2024-03-22T03:21:20;14.77;;;4.73;;
69381;SDS011;56560;50.692;12.844;2024-03-22T03:23:46;12.17;;;4.30;;
69381;SDS011;56560;50.692;12.844;2024-03-22T03:26:12;12.80;;;4.30;;
69381;SDS011;56560;50.692;12.844;2024-03-22T03:28:38;12.48;;;3.95;;
69381;SDS011;56560;50.692;12.844;2024-03-22T03:31:03;13.37;;;4.50;;
69381;SDS011;56560;50.692;12.844;2024-03-22T03:33:29;14.55;;;4.43;;
69381;SDS011;56560;50.692;12.844;2024-03-22T03:35:55;12.52;;;4.65;;
69381;SDS011;56560;50.692;12.844;2024-03-22T03:38:20;14.57;;;5.00;;
69381;SDS011;56560;50.692;12.844;2024-03-22T03:40:47;11.82;;;3.90;;
69381;SDS011;56560;50.692;12.844;2024-03-22T03:43:13;13.43;;;5.00;;
69381;SDS011;56560;50.692;12.844;2024-03-22T03:45:38;16.97;;;4.50;;
69381;SDS011;56560;50.692;12.844;2024-03-22T03:48:04;12.95;;;4.20;;
69381;SDS011;56560;50.692;12.844;2024-03-22T03:50:30;15.67;;;5.13;;
69381;SDS011;56560;50.692;12.844;2024-03-22T03:52:55;16.63;;;4.65;;
69381;SDS011;56560;50.692;12.844;2024-03-22T03:55:22;12.40;;;4.53;;
69381;SDS011;56560;50.692;12.844;2024-03-22T03:57:49;13.75;;;4.63;;
69381;SDS011;56560;50.692;12.844;2024-03-22T04:00:15;12.43;;;4.70;;
69381;SDS011;56560;50.692;12.844;2024-03-22T04:02:41;15.73;;;4.93;;
69381;SDS011;56560;50.692;12.844;2024-03-22T04:05:06;12.40;;;4.30;;
69381;SDS011;56560;50.692;12.844;2024-03-22T04:07:32;12.63;;;4.53;;
69381;SDS011;56560;50.692;12.844;2024-03-22T04:09:58;11.80;;;3.97;;
69381;SDS011;56560;50.692;12.844;2024-03-22T04:12:25;15.38;;;4.25;;
69381;SDS011;56560;50.692;12.844;2024-03-22T04:14:51;13.48;;;4.40;;
69381;SDS011;56560;50.692;12.844;2024-03-22T04:17:17;12.40;;;4.50;;
69381;SDS011;56560;50.692;12.844;2024-03-22T04:19:43;12.00;;;4.45;;
69381;SDS011;56560;50.692;12.844;2024-03-22T04:22:08;13.80;;;4.30;;
69381;SDS011;56560;50.692;12.844;2024-03-22T04:24:34;12.35;;;3.95;;
69381;SDS011;56560;50.692;12.844;2024-03-22T04:26:59;11.77;;;3.90;;
69381;SDS011;56560;50.692;12.844;2024-03-22T04:29:25;12.50;;;4.10;;
69381;SDS011;56560;50.692;12.844;2024-03-22T04:31:50;11.93;;;3.85;;
69381;SDS011;56560;50.692;12.844;2024-03-22T04:34:16;12.48;;;3.97;;
69381;SDS011;56560;50.692;12.844;2024-03-22T04:36:42;12.47;;;3.97;;
69381;SDS011;56560;50.692;12.844;2024-03-22T04:39:08;10.88;;;3.60;;
69381;SDS011;56560;50.692;12.844;2024-03-22T04:41:34;10.80;;;3.70;;
69381;SDS011;56560;50.692;12.844;2024-03-22T04:44:00;13.67;;;4.07;;
69381;SDS011;56560;50.692;12.844;2024-03-22T04:46:25;10.57;;;3.60;;
69381;SDS011;56560;50.692;12.844;2024-03-22T04:48:51;12.13;;;3.70;;
69381;SDS011;56560;50.692;12.844;2024-03-22T04:51:17;12.37;;;3.80;;
69381;SDS011;56560;50.692;12.844;2024-03-22T04:53:42;11.00;;;3.70;;
69381;SDS011;56560;50.692;12.844;2024-03-22T04:56:09;11.65;;;3.95;;
69381;SDS011;56560;50.692;12.844;2024-03-22T04:58:34;12.88;;;3.97;;
69381;SDS011;56560;50.692;12.844;2024-03-22T05:01:02;10.80;;;3.92;;
69381;SDS011;56560;50.692;12.844;2024-03-22T05:03:28;13.43;;;4.13;;
69381;SDS011;56560;50.692;12.844;2024-03-22T05:05:53;12.13;;;4.10;;
69381;SDS011;56560;50.692;12.844;2024-03-22T05:08:20;11.27;;;3.72;;
69381;SDS011;56560;50.692;12.844;2024-03-22T05:10:45;12.53;;;3.90;;
69381;SDS011;56560;50.692;12.844;2024-03-22T05:13:11;10.83;;;3.73;;
69381;SDS011;56560;50.692;12.844;2024-03-22T05:15:36;10.90;;;3.80;;
69381;SDS011;56560;50.692;12.844;2024-03-22T05:18:02;10.87;;;3.63;;
69381;SDS011;56560;50.692;12.844;2024-03-22T05:20:28;13.05;;;3.70;;
69381;SDS011;56560;50.692;12.844;2024-03-22T05:22:54;10.23;;;3.50;;
69381;SDS011;56560;50.692;12.844;2024-03-22T05:25:20;9.88;;;3.22;;
69381;SDS011;56560;50.692;12.844;2024-03-22T05:27:45;11.60;;;3.93;;
69381;SDS011;56560;50.692;12.844;2024-03-22T05:30:11;12.32;;;3.80;;
69381;SDS011;56560;50.692;12.844;2024-03-22T05:32:40;14.13;;;4.30;;
69381;SDS011;56560;50.692;12.844;2024-03-22T05:35:06;13.02;;;3.70;;
69381;SDS011;56560;50.692;12.844;2024-03-22T05:37:32;12.45;;;4.00;;
69381;SDS011;56560;50.692;12.844;2024-03-22T05:40:01;11.70;;;3.88;;
69381;SDS011;56560;50.692;12.844;2024-03-22T05:42:29;13.50;;;4.30;;
69381;SDS011;56560;50.692;12.844;2024-03-22T05:44:55;11.85;;;4.03;;
69381;SDS011;56560;50.692;12.844;2024-03-22T05:47:21;12.73;;;4.30;;
69381;SDS011;56560;50.692;12.844;2024-03-22T05:49:47;12.20;;;3.83;;
69381;SDS011;56560;50.692;12.844;2024-03-22T05:52:12;15.00;;;4.67;;
69381;SDS011;56560;50.692;12.844;2024-03-22T05:54:38;11.63;;;3.88;;
69381;SDS011;56560;50.692;12.844;2024-03-22T05:57:03;13.23;;;4.10;;
69381;SDS011;56560;50.692;12.844;2024-03-22T05:59:30;13.23;;;4.35;;
69381;SDS011;56560;50.692;12.844;2024-03-22T06:01:56;11.45;;;3.90;;
69381;SDS011;56560;50.692;12.844;2024-03-22T06:04:21;14.13;;;4.65;;
69381;SDS011;56560;50.692;12.844;2024-03-22T06:06:48;13.85;;;3.92;;
69381;SDS011;56560;50.692;12.844;2024-03-22T06:09:14;13.37;;;4.50;;
69381;SDS011;56560;50.692;12.844;2024-03-22T06:11:48;13.63;;;4.07;;
69381;SDS011;56560;50.692;12.844;2024-03-22T06:14:14;12.52;;;4.15;;
69381;SDS011;56560;50.692;12.844;2024-03-22T06:16:40;12.17;;;4.50;;
69381;SDS011;56560;50.692;12.844;2024-03-22T06:19:06;13.20;;;4.68;;
69381;SDS011;56560;50.692;12.844;2024-03-22T06:21:31;13.53;;;4.53;;
69381;SDS011;56560;50.692;12.844;2024-03-22T06:23:57;14.27;;;4.43;;
69381;SDS011;56560;50.692;12.844;2024-03-22T06:26:22;15.38;;;4.80;;
69381;SDS011;56560;50.692;12.844;2024-03-22T06:28:48;13.63;;;4.63;;
69381;SDS011;56560;50.692;12.844;2024-03-22T06:31:13;14.07;;;4.40;;
69381;SDS011;56560;50.692;12.844;2024-03-22T06:33:39;18.20;;;4.72;;
69381;SDS011;56560;50.692;12.844;2024-03-22T06:36:04;11.68;;;4.20;;
69381;SDS011;56560;50.692;12.844;2024-03-22T06:38:30;13.93;;;4.85;;
69381;SDS011;56560;50.692;12.844;2024-03-22T06:40:56;17.08;;;5.53;;
69381;SDS011;56560;50.692;12.844;2024-03-22T06:43:22;13.77;;;4.70;;
69381;SDS011;56560;50.692;12.844;2024-03-22T06:45:48;14.13;;;5.10;;
69381;SDS011;56560;50.692;12.844;2024-03-22T06:48:13;14.53;;;4.97;;
69381;SDS011;56560;50.692;12.844;2024-03-22T06:50:41;12.70;;;4.68;;
69381;SDS011;56560;50.692;12.844;2024-03-22T06:53:07;14.67;;;5.10;;
69381;SDS011;56560;50.692;12.844;2024-03-22T06:55:35;15.05;;;5.07;;
69381;SDS011;56560;50.692;12.844;2024-03-22T06:58:00;18.53;;;5.50;;
69381;SDS011;56560;50.692;12.844;2024-03-22T07:00:26;15.25;;;4.72;;
69381;SDS011;56560;50.692;12.844;2024-03-22T07:02:51;15.03;;;4.90;;
69381;SDS011;56560;50.692;12.844;2024-03-22T07:05:17;13.35;;;4.72;;
69381;SDS011;56560;50.692;12.844;2024-03-22T07:07:42;15.95;;;5.78;;
69381;SDS011;56560;50.692;12.844;2024-03-22T07:10:08;15.37;;;5.17;;
69381;SDS011;56560;50.692;12.844;2024-03-22T07:12:34;16.10;;;5.18;;
69381;SDS011;56560;50.692;12.844;2024-03-22T07:15:00;13.63;;;4.90;;
69381;SDS011;56560;50.692;12.844;2024-03-22T07:17:26;12.70;;;4.57;;
69381;SDS011;56560;50.692;12.844;2024-03-22T07:19:52;12.60;;;4.47;;
69381;SDS011;56560;50.692;12.844;2024-03-22T07:22:19;14.30;;;4.72;;
69381;SDS011;56560;50.692;12.844;2024-03-22T07:24:45;13.65;;;4.45;;
69381;SDS011;56560;50.692;12.844;2024-03-22T07:27:12;13.32;;;4.45;;
69381;SDS011;56560;50.692;12.844;2024-03-22T07:29:39;12.73;;;4.50;;
69381;SDS011;56560;50.692;12.844;2024-03-22T07:32:04;14.03;;;4.67;;
69381;SDS011;56560;50.692;12.844;2024-03-22T07:34:31;12.05;;;4.13;;
69381;SDS011;56560;50.692;12.844;2024-03-22T07:36:56;14.27;;;4.40;;
69381;SDS011;56560;50.692;12.844;2024-03-22T07:39:22;14.80;;;4.43;;
69381;SDS011;56560;50.692;12.844;2024-03-22T07:41:48;13.45;;;4.68;;
69381;SDS011;56560;50.692;12.844;2024-03-22T07:44:15;14.60;;;4.40;;
69381;SDS011;56560;50.692;12.844;2024-03-22T07:46:42;14.00;;;4.63;;
69381;SDS011;56560;50.692;12.844;2024-03-22T07:49:11;11.95;;;4.28;;
69381;SDS011;56560;50.692;12.844;2024-03-22T07:51:38;13.60;;;4.60;;
69381;SDS011;56560;50.692;12.844;2024-03-22T07:54:03;14.20;;;4.33;;
69381;SDS011;56560;50.692;12.844;2024-03-22T07:56:29;11.75;;;4.43;;
69381;SDS011;56560;50.692;12.844;2024-03-22T07:58:55;15.40;;;4.50;;
69381;SDS011;56560;50.692;12.844;2024-03-22T08:01:20;12.10;;;4.38;;
69381;SDS011;56560;50.692;12.844;2024-03-22T08:03:46;12.45;;;3.90;;
69381;SDS011;56560;50.692;12.844;2024-03-22T08:06:12;11.57;;;3.53;;
69381;SDS011;56560;50.692;12.844;2024-03-22T08:08:37;11.20;;;3.90;;
69381;SDS011;56560;50.692;12.844;2024-03-22T08:11:03;10.73;;;3.65;;
69381;SDS011;56560;50.692;12.844;2024-03-22T08:13:28;10.77;;;3.80;;
69381;SDS011;56560;50.692;12.844;2024-03-22T08:15:54;11.40;;;3.87;;
69381;SDS011;56560;50.692;12.844;2024-03-22T08:18:19;11.07;;;3.33;;
69381;SDS011;56560;50.692;12.844;2024-03-22T08:20:45;11.73;;;3.60;;
69381;SDS011;56560;50.692;12.844;2024-03-22T08:23:10;10.40;;;3.80;;
69381;SDS011;56560;50.692;12.844;2024-03-22T08:25:36;10.65;;;3.45;;
69381;SDS011;56560;50.692;12.844;2024-03-22T08:28:03;12.20;;;4.00;;
69381;SDS011;56560;50.692;12.844;2024-03-22T08:30:29;11.45;;;3.67;;
69381;SDS011;56560;50.692;12.844;2024-03-22T08:32:54;11.07;;;3.70;;
69381;SDS011;56560;50.692;12.844;2024-03-22T08:35:20;13.65;;;3.90;;
69381;SDS011;56560;50.692;12.844;2024-03-22T08:37:46;12.37;;;4.00;;
69381;SDS011;56560;50.692;12.844;2024-03-22T08:40:11;14.05;;;4.13;;
69381;SDS011;56560;50.692;12.844;2024-03-22T08:42:38;11.70;;;3.83;;
69381;SDS011;56560;50.692;12.844;2024-03-22T08:45:04;12.45;;;3.85;;
69381;SDS011;56560;50.692;12.844;2024-03-22T08:47:30;12.48;;;3.90;;
69381;SDS011;56560;50.692;12.844;2024-03-22T08:49:58;12.25;;;3.80;;
69381;SDS011;56560;50.692;12.844;2024-03-22T08:52:24;12.70;;;4.20;;
69381;SDS011;56560;50.692;12.844;2024-03-22T08:54:50;13.38;;;3.80;;
69381;SDS011;56560;50.692;12.844;2024-03-22T08:57:17;12.43;;;3.90;;
69381;SDS011;56560;50.692;12.844;2024-03-22T08:59:42;12.68;;;3.83;;
69381;SDS011;56560;50.692;12.844;2024-03-22T09:02:08;12.10;;;3.60;;
69381;SDS011;56560;50.692;12.844;2024-03-22T09:04:33;12.47;;;3.70;;
69381;SDS011;56560;50.692;12.844;2024-03-22T09:06:59;11.43;;;3.47;;
69381;SDS011;56560;50.692;12.844;2024-03-22T09:09:24;11.23;;;3.60;;
69381;SDS011;56560;50.692;12.844;2024-03-22T09:11:50;12.97;;;3.97;;
69381;SDS011;56560;50.692;12.844;2024-03-22T09:14:15;12.13;;;3.80;;
69381;SDS011;56560;50.692;12.844;2024-03-22T09:16:42;14.80;;;4.00;;
69381;SDS011;56560;50.692;12.844;2024-03-22T09:19:07;12.98;;;4.22;;
69381;SDS011;56560;50.692;12.844;2024-03-22T09:21:33;14.40;;;4.80;;
69381;SDS011;56560;50.692;12.844;2024-03-22T09:23:58;12.60;;;4.13;;
69381;SDS011;56560;50.692;12.844;2024-03-22T09:26:24;12.80;;;4.32;;
69381;SDS011;56560;50.692;12.844;2024-03-22T09:28:49;14.47;;;4.50;;
69381;SDS011;56560;50.692;12.844;2024-03-22T09:31:15;13.85;;;4.53;;
69381;SDS011;56560;50.692;12.844;2024-03-22T09:33:41;14.20;;;4.80;;
69381;SDS011;56560;50.692;12.844;2024-03-22T09:36:07;12.95;;;4.22;;
69381;SDS011;56560;50.692;12.844;2024-03-22T09:38:33;14.02;;;4.53;;
69381;SDS011;56560;50.692;12.844;2024-03-22T09:40:58;12.10;;;4.22;;
69381;SDS011;56560;50.692;12.844;2024-03-22T09:43:24;13.63;;;4.53;;
69381;SDS011;56560;50.692;12.844;2024-03-22T09:45:52;13.45;;;4.53;;
69381;SDS011;56560;50.692;12.844;2024-03-22T09:48:20;12.60;;;4.68;;
69381;SDS011;56560;50.692;12.844;2024-03-22T09:50:46;13.63;;;4.50;;
69381;SDS011;56560;50.692;12.844;2024-03-22T09:53:13;14.05;;;4.55;;
69381;SDS011;56560;50.692;12.844;2024-03-22T09:55:42;14.02;;;4.50;;
69381;SDS011;56560;50.692;12.844;2024-03-22T09:58:10;14.57;;;4.45;;
69381;SDS011;56560;50.692;12.844;2024-03-22T10:00:35;14.02;;;4.55;;
69381;SDS011;56560;50.692;12.844;2024-03-22T10:03:01;14.80;;;4.60;;
69381;SDS011;56560;50.692;12.844;2024-03-22T10:05:29;14.00;;;4.70;;
69381;SDS011;56560;50.692;12.844;2024-03-22T10:07:54;15.43;;;5.03;;
69381;SDS011;56560;50.692;12.844;2024-03-22T10:10:20;13.85;;;4.32;;
69381;SDS011;56560;50.692;12.844;2024-03-22T10:12:47;12.68;;;4.10;;
69381;SDS011;56560;50.692;12.844;2024-03-22T10:15:13;13.02;;;4.60;;
69381;SDS011;56560;50.692;12.844;2024-03-22T10:17:39;15.20;;;4.57;;
69381;SDS011;56560;50.692;12.844;2024-03-22T10:20:05;13.75;;;4.90;;
69381;SDS011;56560;50.692;12.844;2024-03-22T10:22:58;13.07;;;4.40;;
69381;SDS011;56560;50.692;12.844;2024-03-22T10:25:25;12.13;;;3.88;;
69381;SDS011;56560;50.692;12.844;2024-03-22T10:27:53;11.98;;;4.20;;
69381;SDS011;56560;50.692;12.844;2024-03-22T10:30:19;11.77;;;4.17;;
69381;SDS011;56560;50.692;12.844;2024-03-22T10:32:45;14.15;;;4.25;;
69381;SDS011;56560;50.692;12.844;2024-03-22T10:35:11;14.37;;;5.30;;
69381;SDS011;56560;50.692;12.844;2024-03-22T10:37:38;12.15;;;4.30;;
69381;SDS011;56560;50.692;12.844;2024-03-22T10:40:04;11.68;;;4.13;;
69381;SDS011;56560;50.692;12.844;2024-03-22T10:42:34;14.02;;;4.30;;
69381;SDS011;56560;50.692;12.844;2024-03-22T10:45:01;13.75;;;4.40;;
69381;SDS011;56560;50.692;12.844;2024-03-22T10:47:29;15.07;;;4.85;;
69381;SDS011;56560;50.692;12.844;2024-03-22T10:49:58;18.77;;;6.55;;
69381;SDS011;56560;50.692;12.844;2024-03-22T10:52:34;22.88;;;9.75;;
69381;SDS011;56560;50.692;12.844;2024-03-22T10:55:06;20.98;;;8.40;;
69381;SDS011;56560;50.692;12.844;2024-03-22T10:57:35;46.08;;;18.27;;
69381;SDS011;56560;50.692;12.844;2024-03-22T11:00:03;76.75;;;29.80;;
69381;SDS011;56560;50.692;12.844;2024-03-22T11:02:35;65.75;;;25.83;;
69381;SDS011;56560;50.692;12.844;2024-03-22T11:05:01;23.55;;;8.35;;
69381;SDS011;56560;50.692;12.844;2024-03-22T11:07:30;13.25;;;4.47;;
69381;SDS011;56560;50.692;12.844;2024-03-22T11:09:56;14.40;;;4.70;;
69381;SDS011;56560;50.692;12.844;2024-03-22T11:12:24;13.32;;;4.38;;
69381;SDS011;56560;50.692;12.844;2024-03-22T11:15:02;12.30;;;3.97;;
69381;SDS011;56560;50.692;12.844;2024-03-22T11:17:28;12.52;;;4.35;;
69381;SDS011;56560;50.692;12.844;2024-03-22T11:19:54;11.57;;;3.90;;
69381;SDS011;56560;50.692;12.844;2024-03-22T11:22:19;12.93;;;4.20;;
69381;SDS011;56560;50.692;12.844;2024-03-22T11:24:45;13.93;;;4.27;;
69381;SDS011;56560;50.692;12.844;2024-03-22T11:27:11;11.25;;;4.15;;
69381;SDS011;56560;50.692;12.844;2024-03-22T11:29:37;12.30;;;4.47;;
69381;SDS011;56560;50.692;12.844;2024-03-22T11:32:09;12.18;;;3.83;;
69381;SDS011;56560;50.692;12.844;2024-03-22T11:34:36;10.73;;;4.05;;
69381;SDS011;56560;50.692;12.844;2024-03-22T11:37:03;13.30;;;4.05;;
69381;SDS011;56560;50.692;12.844;2024-03-22T11:39:35;13.27;;;4.50;;
69381;SDS011;56560;50.692;12.844;2024-03-22T11:42:04;12.45;;;4.38;;
69381;SDS011;56560;50.692;12.844;2024-03-22T11:44:36;12.98;;;4.40;;
69381;SDS011;56560;50.692;12.844;2024-03-22T11:47:03;15.07;;;4.63;;
69381;SDS011;56560;50.692;12.844;2024-03-22T11:49:29;12.88;;;4.40;;
69381;SDS011;56560;50.692;12.844;2024-03-22T11:51:58;13.00;;;4.33;;
69381;SDS011;56560;50.692;12.844;2024-03-22T11:54:24;13.30;;;4.57;;
69381;SDS011;56560;50.692;12.844;2024-03-22T11:56:49;12.00;;;4.40;;
69381;SDS011;56560;50.692;12.844;2024-03-22T11:59:15;13.27;;;4.40;;
69381;SDS011;56560;50.692;12.844;2024-03-22T12:01:45;13.57;;;4.53;;
69381;SDS011;56560;50.692;12.844;2024-03-22T12:04:11;13.57;;;4.65;;
69381;SDS011;56560;50.692;12.844;2024-03-22T12:06:41;11.55;;;4.40;;
69381;SDS011;56560;50.692;12.844;2024-03-22T12:09:09;12.90;;;4.57;;
69381;SDS011;56560;50.692;12.844;2024-03-22T12:11:37;14.13;;;4.50;;
69381;SDS011;56560;50.692;12.844;2024-03-22T12:14:03;13.70;;;4.93;;
69381;SDS011;56560;50.692;12.844;2024-03-22T12:16:28;14.37;;;4.93;;
69381;SDS011;56560;50.692;12.844;2024-03-22T12:18:54;13.57;;;4.55;;
69381;SDS011;56560;50.692;12.844;2024-03-22T12:21:19;13.87;;;4.90;;
69381;SDS011;56560;50.692;12.844;2024-03-22T12:23:45;13.07;;;4.93;;
69381;SDS011;56560;50.692;12.844;2024-03-22T12:26:10;13.00;;;4.72;;
69381;SDS011;56560;50.692;12.844;2024-03-22T12:28:36;13.47;;;5.20;;
69381;SDS011;56560;50.692;12.844;2024-03-22T12:31:01;13.93;;;5.30;;
69381;SDS011;56560;50.692;12.844;2024-03-22T12:33:29;14.75;;;5.20;;
69381;SDS011;56560;50.692;12.844;2024-03-22T12:35:54;13.60;;;4.97;;
69381;SDS011;56560;50.692;12.844;2024-03-22T12:38:20;13.90;;;5.40;;
69381;SDS011;56560;50.692;12.844;2024-03-22T12:40:45;16.07;;;5.93;;
69381;SDS011;56560;50.692;12.844;2024-03-22T12:43:11;15.30;;;6.05;;
69381;SDS011;56560;50.692;12.844;2024-03-22T12:45:37;15.38;;;5.78;;
69381;SDS011;56560;50.692;12.844;2024-03-22T12:48:02;15.20;;;5.80;;
69381;SDS011;56560;50.692;12.844;2024-03-22T12:50:29;14.90;;;6.30;;
69381;SDS011;56560;50.692;12.844;2024-03-22T12:52:55;15.23;;;6.22;;
69381;SDS011;56560;50.692;12.844;2024-03-22T12:55:21;14.38;;;6.20;;
69381;SDS011;56560;50.692;12.844;2024-03-22T12:57:47;16.17;;;7.10;;
69381;SDS011;56560;50.692;12.844;2024-03-22T13:00:12;22.08;;;12.57;;
69381;SDS011;56560;50.692;12.844;2024-03-22T13:02:43;15.63;;;6.47;;
69381;SDS011;56560;50.692;12.844;2024-03-22T13:05:09;16.98;;;6.55;;
69381;SDS011;56560;50.692;12.844;2024-03-22T13:07:34;16.58;;;6.53;;
69381;SDS011;56560;50.692;12.844;2024-03-22T13:10:00;15.43;;;6.40;;
69381;SDS011;56560;50.692;12.844;2024-03-22T13:12:27;16.13;;;6.55;;
69381;SDS011;56560;50.692;12.844;2024-03-22T13:14:53;15.07;;;6.18;;
69381;SDS011;56560;50.692;12.844;2024-03-22T13:17:19;14.90;;;6.68;;
69381;SDS011;56560;50.692;12.844;2024-03-22T13:19:45;18.03;;;6.80;;
69381;SDS011;56560;50.692;12.844;2024-03-22T13:22:11;15.73;;;6.70;;
69381;SDS011;56560;50.692;12.844;2024-03-22T13:24:37;16.13;;;6.60;;
69381;SDS011;56560;50.692;12.844;2024-03-22T13:27:03;17.67;;;7.30;;
69381;SDS011;56560;50.692;12.844;2024-03-22T13:29:29;16.15;;;6.00;;
69381;SDS011;56560;50.692;12.844;2024-03-22T13:31:54;15.70;;;6.40;;
69381;SDS011;56560;50.692;12.844;2024-03-22T13:34:20;16.20;;;6.33;;
69381;SDS011;56560;50.692;12.844;2024-03-22T13:36:45;16.85;;;6.35;;
69381;SDS011;56560;50.692;12.844;2024-03-22T13:39:11;17.95;;;6.25;;
69381;SDS011;56560;50.692;12.844;2024-03-22T13:41:40;18.50;;;6.53;;
69381;SDS011;56560;50.692;12.844;2024-03-22T13:44:06;17.40;;;6.78;;
69381;SDS011;56560;50.692;12.844;2024-03-22T13:46:33;17.38;;;7.25;;
69381;SDS011;56560;50.692;12.844;2024-03-22T13:49:01;17.52;;;7.47;;
69381;SDS011;56560;50.692;12.844;2024-03-22T13:51:28;16.43;;;6.97;;
69381;SDS011;56560;50.692;12.844;2024-03-22T13:53:56;16.55;;;6.20;;
69381;SDS011;56560;50.692;12.844;2024-03-22T13:56:22;17.80;;;7.22;;
69381;SDS011;56560;50.692;12.844;2024-03-22T13:58:47;17.90;;;7.10;;
69381;SDS011;56560;50.692;12.844;2024-03-22T14:01:14;17.02;;;6.32;;
69381;SDS011;56560;50.692;12.844;2024-03-22T14:03:40;20.23;;;7.75;;
69381;SDS011;56560;50.692;12.844;2024-03-22T14:06:05;15.33;;;6.93;;
69381;SDS011;56560;50.692;12.844;2024-03-22T14:08:31;21.23;;;9.02;;
69381;SDS011;56560;50.692;12.844;2024-03-22T14:10:57;24.10;;;10.60;;
69381;SDS011;56560;50.692;12.844;2024-03-22T14:13:23;20.33;;;7.90;;
69381;SDS011;56560;50.692;12.844;2024-03-22T14:15:48;26.13;;;10.40;;